Latest Weather Observations for Charles Point

IDD60901

Issued at 10:01 am CST Tuesday 12 November 2019 (issued every 10 minutes, with the page automatically refreshed every 10 minutes)

About weather observations | Map of Darwin area stations | Latest observations for Darwin area | Other Formats
Station Details ID: 014031 Name: CHARLES POINT Lat: -12.39 Lon: 130.63 Height: 14.0 m
Data from the previous 72 hours. | See also: Recent months for locations in Northern Territory
Date/Time
CST
Temp
°C
App
Temp
°C
Dew
Point
°C
Rel
Hum
%
Delta-T
°C
Wind Press
QNH
hPa
Press
MSL
hPa
Rain since
9am
mm
Dir  Spd
km/h
Gust
km/h
Spd
kts
Gust
kts
12/10:00am 30.8 35.0 23.2 64 5.2 NNE 6 9 3 5 1013.2 1013.1 0.0
12/09:30am 30.5 34.9 23.4 66 4.9 NE 6 7 3 4 1013.2 1013.1 0.0
12/09:00am 29.9 34.8 23.6 69 4.3 N 4 6 2 3 1012.7 1012.6 0.0
12/08:30am 29.6 34.6 23.8 71 4.0 N 4 6 2 3 1012.4 1012.3 0.0
12/08:00am 29.3 34.2 23.7 72 3.9 N 4 6 2 3 1012.2 1012.1 0.0
12/07:30am 28.9 34.1 24.2 76 3.3 N 4 6 2 3 1012.0 1011.9 0.0
12/07:00am 26.7 32.8 24.4 87 1.6 CALM 0 0 0 0 1011.5 1011.4 0.0
12/06:30am 25.8 31.5 23.7 88 1.4 CALM 0 0 0 0 1011.2 1011.0 0.0
12/06:00am 25.8 31.2 23.3 86 1.7 CALM 0 0 0 0 1011.2 1011.0 0.0
12/05:30am 26.5 31.4 23.0 81 2.4 NNW 2 6 1 3 1010.9 1010.7 0.0
12/05:00am 29.0 33.5 23.7 73 3.7 N 6 9 3 5 1010.5 1010.3 0.0
12/04:30am 29.0 33.0 23.7 73 3.7 N 9 13 5 7 1010.2 1010.0 0.0
12/04:00am 29.1 32.8 23.3 71 4.0 N 9 13 5 7 1010.1 1009.9 0.0
12/03:30am 29.2 32.1 22.4 66 4.6 N 11 15 6 8 1010.0 1009.8 0.0
12/03:00am 29.3 32.9 23.0 69 4.3 N 9 13 5 7 1010.0 1009.8 0.0
12/02:30am 29.2 33.0 23.4 71 4.0 N 9 13 5 7 1010.1 1009.9 0.0
12/02:00am 29.4 32.5 22.9 68 4.4 N 11 15 6 8 1010.2 1010.0 0.0
12/01:30am 29.4 33.0 23.1 69 4.3 NNW 9 13 5 7 1010.3 1010.1 0.0
12/01:00am 29.5 32.7 23.0 68 4.4 NNW 11 15 6 8 1010.4 1010.2 0.0
12/12:30am 29.5 32.8 23.2 69 4.3 NW 11 17 6 9 1010.6 1010.4 0.0
12/12:00am 29.5 32.4 23.2 69 4.3 NW 13 19 7 10 1010.8 1010.6 0.0
 
Date/Time
CST
Temp
°C
App
Temp
°C
Dew
Point
°C
Rel
Hum
%
Delta-T
°C
Wind Press
QNH
hPa
Press
MSL
hPa
Rain since
9am
mm
Dir  Spd
km/h
Gust
km/h
Spd
kts
Gust
kts
11/11:30pm 29.3 32.7 24.0 73 3.7 WNW 13 17 7 9 1010.8 1010.6 0.0
11/11:00pm 29.4 32.6 24.3 74 3.5 WNW 15 19 8 10 1011.0 1010.8 0.0
11/10:30pm 29.5 32.1 23.9 72 3.9 WNW 17 20 9 11 1010.9 1010.7 0.0
11/10:00pm 29.7 32.4 24.1 72 3.9 WNW 17 22 9 12 1010.7 1010.5 0.0
11/09:30pm 29.7 32.9 24.3 73 3.8 WNW 15 24 8 13 1010.5 1010.3 0.0
11/09:00pm 29.9 33.2 24.5 73 3.8 WNW 15 24 8 13 - - 0.0
11/08:30pm 29.8 33.3 24.2 72 3.9 WNW 13 20 7 11 - - 0.0
11/08:00pm 29.9 34.5 24.1 71 4.0 W 7 15 4 8 - - 0.0
11/07:30pm 29.8 34.3 24.0 71 4.0 WSW 7 15 4 8 - - 0.0
11/07:00pm 29.9 34.2 23.6 69 4.3 WSW 7 13 4 7 - - 0.0
11/06:30pm 30.5 34.7 23.4 66 4.9 WSW 7 13 4 7 - - 0.0
11/06:00pm 31.4 35.2 23.5 63 5.5 W 9 19 5 10 - - 0.0
11/05:30pm 31.5 34.9 23.3 61 5.7 W 11 20 6 11 - - 0.0
11/05:00pm 32.2 34.1 21.4 53 7.3 W 13 20 7 11 - - 0.0
11/04:30pm 32.9 35.2 21.4 50 7.8 W 11 17 6 9 - - 0.0
11/04:00pm 32.6 34.4 21.8 53 7.3 WNW 15 22 8 12 1008.1 1007.9 0.0
11/03:30pm 32.6 34.4 21.8 53 7.3 WNW 15 20 8 11 1008.5 1008.3 0.0
11/03:00pm 32.8 34.2 20.3 47 8.3 WNW 13 19 7 10 1008.9 1008.7 0.0
11/02:30pm 32.8 34.9 21.0 50 7.9 NW 11 15 6 8 1009.1 1008.9 0.0
11/02:00pm 32.6 35.0 20.8 49 7.9 NW 9 15 5 8 1009.6 1009.4 0.0
11/01:30pm 32.1 35.2 22.2 56 6.8 NW 9 13 5 7 1010.0 1009.8 0.0
11/01:00pm 32.0 35.9 23.0 59 6.2 NNW 7 11 4 6 1010.4 1010.2 0.0
11/12:30pm 31.4 35.0 23.0 61 5.8 N 9 13 5 7 1010.9 1010.7 0.0
11/12:00pm 31.3 34.9 23.1 61 5.6 N 9 11 5 6 1011.3 1011.1 0.0
11/11:30am 30.9 34.6 22.5 61 5.7 N 7 9 4 5 1011.7 1011.6 0.0
11/11:00am 30.9 35.0 23.0 62 5.4 N 6 7 3 4 1012.0 1011.9 0.0
11/10:30am 30.9 36.0 24.1 67 4.7 NNE 4 6 2 3 1012.3 1012.2 0.0
11/10:00am 30.6 35.0 23.5 66 4.9 NE 6 7 3 4 1012.2 1012.1 0.0
11/09:30am 30.3 35.0 24.0 69 4.4 NNE 6 9 3 5 1012.0 1011.9 0.0
11/09:00am 30.0 34.6 24.2 71 4.0 NNE 7 11 4 6 1011.8 1011.7 0.0
11/08:30am 29.9 35.0 25.0 75 3.4 NNE 7 9 4 5 1011.7 1011.6 0.0
11/08:00am 29.7 36.3 25.2 77 3.2 CALM 0 4 0 2 1011.4 1011.2 0.0
11/07:30am 28.6 35.2 25.2 82 2.4 CALM 0 0 0 0 1011.2 1011.0 0.0
11/07:00am 26.6 31.9 24.4 88 1.5 SSE 4 4 2 2 1010.9 1010.7 0.0
11/06:30am 26.0 31.5 24.0 89 1.4 SSE 2 2 1 1 1010.5 1010.3 0.0
11/06:00am 26.2 31.7 24.6 91 1.1 SSE 4 4 2 2 1010.4 1010.2 0.0
11/05:30am 26.0 31.3 24.4 91 1.1 SE 4 4 2 2 1010.3 1010.1 0.0
11/05:00am 26.0 31.5 24.6 92 1.0 SE 4 6 2 3 1010.2 1010.0 0.0
11/04:30am 25.9 31.9 24.9 94 0.7 S 2 2 1 1 1010.0 1009.8 0.0
11/04:00am 26.1 31.7 24.9 93 0.8 S 4 4 2 2 1009.8 1009.6 0.0
11/03:30am 26.2 31.9 25.0 93 0.8 S 4 4 2 2 1009.6 1009.4 0.0
11/03:00am 26.3 32.8 25.1 93 0.8 CALM 0 0 0 0 1009.7 1009.5 0.0
11/02:30am 26.6 33.1 25.0 91 1.1 CALM 0 0 0 0 1009.7 1009.5 0.0
11/02:00am 27.0 33.5 25.0 89 1.4 CALM 0 0 0 0 1009.9 1009.7 0.0
11/01:30am 27.6 33.3 25.0 86 1.8 WSW 4 6 2 3 1010.3 1010.1 0.0
11/01:00am 28.2 34.4 25.2 84 2.1 W 2 6 1 3 1010.4 1010.2 0.0
11/12:30am 28.8 33.9 25.6 83 2.3 WNW 9 13 5 7 1010.4 1010.2 0.0
11/12:00am 28.8 33.4 25.4 82 2.4 WNW 11 15 6 8 1010.5 1010.3 0.0
 
Date/Time
CST
Temp
°C
App
Temp
°C
Dew
Point
°C
Rel
Hum
%
Delta-T
°C
Wind Press
QNH
hPa
Press
MSL
hPa
Rain since
9am
mm
Dir  Spd
km/h
Gust
km/h
Spd
kts
Gust
kts
10/11:30pm 28.8 33.5 25.6 83 2.3 WNW 11 17 6 9 1010.7 1010.5 0.0
10/11:00pm 28.9 33.1 25.3 81 2.5 NW 13 19 7 10 1010.8 1010.6 0.0
10/10:30pm 29.0 33.0 25.6 82 2.4 NW 15 20 8 11 1010.6 1010.4 0.0
10/10:00pm 29.3 33.5 25.9 82 2.4 WNW 15 19 8 10 1010.3 1010.1 0.0
10/09:30pm 29.5 32.7 25.5 79 2.8 NW 19 24 10 13 1010.1 1009.9 0.0
10/09:00pm 29.7 32.8 25.4 78 3.0 NW 19 24 10 13 1009.7 1009.5 0.0
10/08:30pm 29.6 33.3 25.8 80 2.7 NW 17 22 9 12 1009.2 1009.0 0.0
10/08:00pm 29.8 33.2 25.8 79 2.8 NW 19 24 10 13 1008.9 1008.7 0.0
10/07:30pm 30.7 33.6 25.1 72 4.0 NW 19 24 10 13 1008.5 1008.3 0.0
10/07:00pm 31.0 33.3 24.1 66 4.8 NW 19 24 10 13 1008.4 1008.2 0.0
10/06:30pm 31.4 34.1 23.5 63 5.5 NW 15 22 8 12 1008.3 1008.1 0.0
10/06:00pm 32.0 35.8 24.1 63 5.5 NW 11 15 6 8 1008.3 1008.1 0.0
10/05:30pm 32.3 35.3 23.3 59 6.2 WNW 13 17 7 9 1008.2 1008.0 0.0
10/05:00pm 32.8 37.0 23.4 57 6.5 NW 7 11 4 6 1007.8 1007.6 0.0
10/04:30pm 32.5 36.6 24.0 61 5.9 NW 9 13 5 7 1007.9 1007.7 0.0
10/04:00pm 32.4 36.1 23.9 61 5.9 WNW 11 17 6 9 1008.1 1007.9 0.0
10/03:30pm 32.8 36.7 24.3 61 6.0 NW 11 17 6 9 1008.6 1008.4 0.0
10/03:00pm 32.7 35.7 23.3 57 6.5 NW 13 19 7 10 1009.0 1008.8 0.0
10/02:30pm 32.7 36.4 23.9 60 6.1 NW 11 15 6 8 1009.2 1009.0 0.0
10/02:00pm 32.1 36.1 24.4 63 5.4 NW 11 15 6 8 1009.7 1009.5 0.0
10/01:30pm 32.1 36.0 24.2 63 5.5 NW 11 17 6 9 1010.2 1010.0 0.0
10/01:00pm 31.5 34.4 23.9 64 5.3 NNE 15 20 8 11 1010.5 1010.3 0.0
10/12:30pm 31.3 34.7 24.7 68 4.6 N 15 19 8 10 1010.8 1010.6 0.0
10/12:00pm 30.9 35.3 25.0 71 4.2 NNE 11 17 6 9 1011.5 1011.4 0.0
10/11:30am 31.0 36.1 25.6 73 3.8 NNE 9 13 5 7 1012.0 1011.9 0.0
10/11:00am 30.8 35.9 25.6 74 3.7 NNE 9 13 5 7 1012.5 1012.4 0.0
10/10:30am 30.9 36.5 25.7 74 3.7 ENE 7 11 4 6 1012.8 1012.7 0.0
10/10:00am 30.8 36.2 25.4 73 3.8 E 7 13 4 7 1013.0 1012.9 0.0
10/09:30am 30.8 35.7 24.4 68 4.5 E 6 11 3 6 1012.9 1012.8 0.0
10/09:00am 30.5 35.0 23.7 67 4.7 E 6 7 3 4 1012.6 1012.5 0.6
10/08:30am 30.4 35.3 23.6 67 4.7 ESE 4 6 2 3 1012.2 1012.1 0.6
10/08:00am 29.5 33.2 22.2 65 4.9 SE 6 7 3 4 1012.2 1012.1 0.6
10/07:30am 28.6 32.5 22.6 70 4.1 SE 6 9 3 5 1011.8 1011.7 0.6
10/07:00am 27.5 31.5 22.7 75 3.3 ESE 6 11 3 6 1011.4 1011.2 0.6
10/06:30am 26.2 30.3 22.9 82 2.2 SSE 6 7 3 4 1011.0 1010.8 0.6
10/06:00am 26.3 31.2 23.6 85 1.8 SSE 4 7 2 4 1010.3 1010.1 0.6
10/05:30am 28.9 32.5 22.4 68 4.4 NNE 7 11 4 6 1010.1 1009.9 0.6
10/05:00am 28.4 31.6 22.4 70 4.1 NNE 9 13 5 7 1010.0 1009.8 0.6
10/04:30am 27.7 29.8 23.1 76 3.1 ENE 17 28 9 15 1010.7 1010.5 0.0
10/04:11am 28.4 30.6 24.2 78 2.9 E 20 39 11 21 1010.5 1010.3 0.0
10/04:00am 29.4 35.6 26.4 84 2.1 E 6 13 3 7 1010.3 1010.1 0.0
10/03:30am 28.7 35.2 26.3 87 1.7 SE 4 7 2 4 1010.4 1010.2 0.0
10/03:00am 27.9 34.9 25.9 89 1.4 CALM 0 2 0 1 1010.2 1010.0 0.0
10/02:30am 27.8 34.6 25.6 88 1.6 CALM 0 0 0 0 1010.0 1009.8 0.0
10/02:00am 28.2 35.2 25.8 87 1.7 CALM 0 0 0 0 1010.3 1010.1 0.0
10/01:30am 28.0 34.7 25.4 86 1.8 CALM 0 0 0 0 1010.1 1009.9 0.0
10/01:00am 28.4 34.7 25.4 84 2.1 W 2 2 1 1 1010.1 1009.9 0.0
10/12:30am 28.6 35.1 25.6 84 2.1 W 2 6 1 3 1010.3 1010.1 0.0
10/12:00am 28.8 34.7 25.4 82 2.4 WNW 4 7 2 4 1010.6 1010.4 0.0
 
Date/Time
CST
Temp
°C
App
Temp
°C
Dew
Point
°C
Rel
Hum
%
Delta-T
°C
Wind Press
QNH
hPa
Press
MSL
hPa
Rain since
9am
mm
Dir  Spd
km/h
Gust
km/h
Spd
kts
Gust
kts
09/11:30pm 29.0 34.8 25.2 80 2.7 W 4 6 2 3 1010.8 1010.6 0.0
09/11:00pm 29.1 34.6 25.3 80 2.7 W 6 7 3 4 1011.0 1010.8 0.0
09/10:30pm 29.1 34.9 25.1 79 2.8 W 4 9 2 5 1010.8 1010.6 0.0
09/10:00pm 29.2 34.9 25.0 78 2.9 WSW 4 9 2 5 1010.9 1010.7 0.0
09/09:30pm 29.2 34.6 25.2 79 2.8 W 6 9 3 5 1010.6 1010.4 0.0
09/09:00pm 29.3 34.8 25.3 79 2.8 WSW 6 11 3 6 1010.3 1010.1 0.0
09/08:30pm 29.3 34.7 25.1 78 3.0 WSW 6 11 3 6 1009.9 1009.7 0.0
09/08:00pm 29.6 34.7 24.9 76 3.3 SW 7 17 4 9 1009.4 1009.2 0.0
09/07:30pm 29.7 34.8 25.0 76 3.3 SW 7 13 4 7 1009.2 1009.0 0.0
09/07:00pm 29.9 34.5 24.8 74 3.6 SW 9 17 5 9 1008.9 1008.7 0.0
09/06:30pm 30.3 35.2 24.7 72 3.9 SW 7 19 4 10 1008.6 1008.4 0.0
09/06:00pm 30.8 35.4 24.7 70 4.3 WSW 9 20 5 11 1008.4 1008.2 0.0
09/05:30pm 31.3 35.6 24.9 69 4.5 W 11 19 6 10 1008.0 1007.8 0.0
09/05:00pm 31.6 36.0 25.0 68 4.7 W 11 19 6 10 1007.7 1007.5 0.0
09/04:30pm 31.5 34.8 25.1 69 4.5 WNW 17 24 9 13 1007.7 1007.5 0.0
09/04:00pm 31.6 34.8 25.0 68 4.7 WNW 17 24 9 13 1008.1 1007.9 0.0
09/03:30pm 32.2 36.4 25.3 67 4.9 W 13 20 7 11 1008.4 1008.2 0.0
09/03:00pm 32.1 35.5 25.2 67 4.9 WNW 17 24 9 13 1008.9 1008.7 0.0
09/02:30pm 32.0 35.4 24.6 65 5.2 WNW 15 26 8 14 1009.2 1009.0 0.0
09/02:00pm 32.3 35.8 24.9 65 5.2 WNW 15 24 8 13 1009.7 1009.5 0.0
09/01:30pm 32.2 35.4 24.3 63 5.5 WNW 15 20 8 11 1010.1 1009.9 0.0
09/01:00pm 32.5 35.7 23.7 59 6.1 WNW 13 19 7 10 1010.8 1010.6 0.0
09/12:30pm 32.0 35.4 23.3 60 6.0 NW 11 17 6 9 1011.2 1011.0 0.0
09/12:00pm 32.1 34.8 22.2 56 6.7 NNW 11 17 6 9 1011.7 1011.6 0.0
09/11:30am 32.1 35.4 21.9 54 6.9 NNW 7 11 4 6 1012.2 1012.1 0.0
09/11:00am 31.5 34.7 21.7 56 6.6 N 7 9 4 5 1012.5 1012.4 0.0
09/10:30am 31.2 34.3 21.4 56 6.6 N 7 9 4 5 1012.9 1012.8 0.0

Latest Capital City Observations: Canberra | Sydney | Melbourne | Brisbane | Adelaide | Perth | Hobart | Darwin

Other formats

Comma delimited format used in spreadsheet applications
http://www.bom.gov.au/fwo/IDD60901/IDD60901.99510.axf

JavaScript Object Notation format (JSON) in row-major order
http://www.bom.gov.au/fwo/IDD60901/IDD60901.99510.json

Data quality

Most of these data are generated automatically and are frequently updated. Quality checks on data are not normally performed. It is possible for incorrect values to appear. Refer to information at About Latest Weather Observations and please check the disclaimer before using these data.